Time;durP1;ratioP1;P1;durP2;ratioP2;P2;SDS_P1;SDS_P2;PMS_P1;PMS_P2;Temp;Humidity;BMP_temperature;BMP_pressure;BME280_temperature;BME280_humidity;BME280_pressure;Samples;Min_cycle;Max_cycle;Signal;HPM_P1;HPM_P2
2023/06/02 00:01:03;;;;;;;8.05;2.00;;;11.20;99.90;;;;;;5065596;28;20422;-61
2023/06/02 00:03:34;;;;;;;9.35;2.30;;;11.10;99.90;;;;;;5065862;28;20040;-62
2023/06/02 00:06:11;;;;;;;14.32;3.08;;;11.20;99.90;;;;;;5085314;28;20036;-62
2023/06/02 00:08:40;;;;;;;13.38;3.75;;;11.20;99.90;;;;;;5044491;28;20036;-61
2023/06/02 00:11:10;;;;;;;12.25;2.50;;;11.20;99.90;;;;;;5087518;28;20445;-61
2023/06/02 00:13:36;;;;;;;16.60;3.85;;;11.20;99.90;;;;;;5085263;28;20036;-62
2023/06/02 00:16:03;;;;;;;13.63;2.60;;;11.10;99.90;;;;;;5055183;28;20685;-62
2023/06/02 00:18:32;;;;;;;13.35;2.78;;;11.20;99.90;;;;;;5061895;28;20086;-61
2023/06/02 00:21:00;;;;;;;11.55;3.25;;;11.20;99.90;;;;;;5068664;28;20044;-62
2023/06/02 00:23:28;;;;;;;13.90;2.47;;;11.10;99.90;;;;;;5050231;28;20048;-60
2023/06/02 00:25:55;;;;;;;15.20;2.50;;;11.10;99.90;;;;;;5053634;28;20028;-63
2023/06/02 00:28:21;;;;;;;16.88;3.03;;;11.10;99.90;;;;;;5064539;28;20048;-61
2023/06/02 00:30:47;;;;;;;15.20;2.85;;;11.10;99.90;;;;;;5067626;28;20115;-61
2023/06/02 00:33:13;;;;;;;14.38;2.67;;;11.10;99.90;;;;;;5071063;28;20036;-61
2023/06/02 00:35:38;;;;;;;11.77;2.40;;;11.10;99.90;;;;;;5068916;28;20081;-63
2023/06/02 00:38:04;;;;;;;15.75;2.63;;;11.10;99.90;;;;;;5067529;28;20127;-62
2023/06/02 00:40:32;;;;;;;14.00;2.75;;;11.10;99.90;;;;;;5050329;28;20071;-62
2023/06/02 00:43:01;;;;;;;13.85;2.80;;;11.20;99.90;;;;;;5053102;28;20244;-61
2023/06/02 00:45:27;;;;;;;13.18;2.70;;;11.20;99.90;;;;;;5064811;28;20076;-62
2023/06/02 00:47:53;;;;;;;11.63;3.45;;;11.10;99.90;;;;;;5050411;28;20059;-61
2023/06/02 00:50:19;;;;;;;13.90;2.85;;;11.10;99.90;;;;;;5090052;28;20113;-61
2023/06/02 00:52:46;;;;;;;22.25;3.35;;;11.10;99.90;;;;;;5054054;28;20075;-62
2023/06/02 00:55:11;;;;;;;11.63;2.53;;;11.10;99.90;;;;;;5056115;28;20031;-63
2023/06/02 00:57:40;;;;;;;13.73;2.88;;;11.10;99.90;;;;;;5069391;28;20093;-62
2023/06/02 01:00:07;;;;;;;12.73;2.90;;;11.10;99.90;;;;;;5055286;28;20036;-62
2023/06/02 01:02:34;;;;;;;17.70;3.15;;;11.10;99.90;;;;;;5071373;28;20502;-61
2023/06/02 01:05:03;;;;;;;13.52;2.78;;;11.10;99.90;;;;;;5069129;28;20048;-62
2023/06/02 01:07:31;;;;;;;19.77;3.10;;;11.10;99.90;;;;;;5068444;28;20048;-62
2023/06/02 01:10:01;;;;;;;12.00;2.88;;;11.00;99.90;;;;;;5073850;28;20047;-62
2023/06/02 01:12:30;;;;;;;15.75;3.35;;;11.00;99.90;;;;;;5053397;28;20121;-61
2023/06/02 01:14:55;;;;;;;13.30;2.58;;;11.00;99.90;;;;;;5070269;28;20039;-62
2023/06/02 01:17:30;;;;;;;16.08;3.53;;;11.00;99.90;;;;;;5047743;28;20075;-62
2023/06/02 01:20:05;;;;;;;17.80;3.50;;;11.00;99.90;;;;;;5066223;28;20067;-62
2023/06/02 01:22:38;;;;;;;17.63;2.90;;;11.00;99.90;;;;;;5070926;28;20036;-62
2023/06/02 01:25:21;;;;;;;21.08;4.80;;;11.00;99.90;;;;;;5056555;28;20399;-64
2023/06/02 01:27:47;;;;;;;13.02;2.85;;;11.00;99.90;;;;;;5049242;28;21548;-63
2023/06/02 01:30:17;;;;;;;17.58;2.95;;;10.90;99.90;;;;;;5056930;28;20192;-59
2023/06/02 01:32:52;;;;;;;13.80;2.78;;;10.90;99.90;;;;;;5067387;28;20048;-62
2023/06/02 01:35:21;;;;;;;10.35;2.13;;;10.90;99.90;;;;;;5060471;28;20070;-62
2023/06/02 01:37:56;;;;;;;21.25;4.18;;;10.90;99.90;;;;;;5066485;28;20048;-62
2023/06/02 01:40:24;;;;;;;10.48;3.10;;;10.90;99.90;;;;;;5065935;28;20411;-62
2023/06/02 01:42:53;;;;;;;19.48;3.25;;;10.90;99.90;;;;;;5066997;28;20419;-62
2023/06/02 01:45:20;;;;;;;13.65;2.65;;;10.90;99.90;;;;;;5070239;28;20039;-62
2023/06/02 01:47:46;;;;;;;12.85;2.90;;;10.90;99.90;;;;;;5068837;28;20036;-62
2023/06/02 01:50:12;;;;;;;13.93;3.13;;;11.00;99.90;;;;;;5061640;28;20039;-61
2023/06/02 01:52:40;;;;;;;19.13;3.42;;;11.00;99.90;;;;;;5071963;28;20677;-60
2023/06/02 01:55:06;;;;;;;15.02;3.15;;;10.90;99.90;;;;;;5064545;28;20047;-62
2023/06/02 01:57:35;;;;;;;16.10;3.17;;;10.90;99.90;;;;;;5056058;28;20039;-62
2023/06/02 02:00:04;;;;;;;14.30;3.42;;;10.90;99.90;;;;;;5065372;28;20028;-63
2023/06/02 02:02:33;;;;;;;13.95;3.40;;;10.90;99.90;;;;;;5041335;28;20050;-62
2023/06/02 02:04:59;;;;;;;12.07;3.25;;;10.90;99.90;;;;;;5079351;28;20491;-62
2023/06/02 02:07:25;;;;;;;15.38;3.00;;;10.90;99.90;;;;;;5066868;28;20196;-63
2023/06/02 02:09:51;;;;;;;10.75;2.78;;;10.90;99.90;;;;;;5063882;28;20428;-62
2023/06/02 02:12:17;;;;;;;13.55;2.92;;;10.90;99.90;;;;;;5054743;28;20059;-61
2023/06/02 02:14:43;;;;;;;14.95;3.67;;;10.90;99.90;;;;;;5066586;28;20479;-61
2023/06/02 02:17:09;;;;;;;18.52;3.55;;;10.90;99.90;;;;;;5063640;28;20564;-62
2023/06/02 02:19:36;;;;;;;13.07;3.22;;;10.90;99.90;;;;;;5058959;28;20471;-62
2023/06/02 02:22:01;;;;;;;12.07;2.72;;;10.90;99.90;;;;;;5065768;28;20036;-61
2023/06/02 02:24:27;;;;;;;16.58;2.72;;;10.90;99.90;;;;;;5086039;28;20055;-60
2023/06/02 02:26:53;;;;;;;10.32;2.90;;;10.90;99.90;;;;;;5056848;28;20028;-58
2023/06/02 02:29:18;;;;;;;14.85;2.90;;;10.90;99.90;;;;;;5069638;28;20675;-61
2023/06/02 02:31:44;;;;;;;16.55;2.75;;;10.90;99.90;;;;;;5058028;28;20033;-63
2023/06/02 02:34:10;;;;;;;18.02;3.50;;;10.90;99.90;;;;;;5064407;28;20145;-61
2023/06/02 02:36:35;;;;;;;13.55;3.00;;;10.90;99.90;;;;;;5065864;28;20036;-61
2023/06/02 02:39:03;;;;;;;16.92;2.72;;;10.90;99.90;;;;;;5056272;28;20071;-60
2023/06/02 02:41:28;;;;;;;15.63;4.35;;;10.90;99.90;;;;;;5055767;28;20127;-61
2023/06/02 02:43:57;;;;;;;15.82;2.88;;;10.90;99.90;;;;;;5042276;28;20036;-62
2023/06/02 02:46:23;;;;;;;20.38;3.33;;;10.90;99.90;;;;;;5065848;28;20028;-62
2023/06/02 02:48:49;;;;;;;15.38;3.03;;;10.80;99.90;;;;;;5051617;28;20368;-62
2023/06/02 02:51:14;;;;;;;17.25;3.15;;;10.80;99.90;;;;;;5086271;28;20138;-61
2023/06/02 02:53:40;;;;;;;16.20;2.80;;;10.80;99.90;;;;;;5049529;28;20032;-61
2023/06/02 02:56:07;;;;;;;18.27;3.40;;;10.90;99.90;;;;;;5068032;28;20600;-62
2023/06/02 02:58:36;;;;;;;14.20;3.50;;;10.90;99.90;;;;;;5032550;28;20442;-62
2023/06/02 03:01:04;;;;;;;16.83;3.72;;;10.90;99.90;;;;;;5066302;28;20040;-62
2023/06/02 03:03:32;;;;;;;15.93;3.28;;;10.90;99.90;;;;;;5066260;28;20120;-61
2023/06/02 03:05:57;;;;;;;17.17;3.03;;;10.90;99.90;;;;;;5040823;28;20119;-61
2023/06/02 03:08:23;;;;;;;13.65;2.90;;;10.90;99.90;;;;;;5060615;28;20158;-61
2023/06/02 03:18:47;;;;;;;14.20;3.40;;;10.90;99.90;;;;;;5091038;28;20135;-62
2023/06/02 03:21:13;;;;;;;15.27;3.13;;;10.90;99.90;;;;;;5031297;28;20036;-61
2023/06/02 03:23:40;;;;;;;20.52;3.08;;;10.90;99.90;;;;;;5066210;28;20782;-62
2023/06/02 03:26:06;;;;;;;14.60;2.75;;;10.90;99.90;;;;;;5043646;28;20036;-61
2023/06/02 03:28:32;;;;;;;21.75;3.70;;;10.90;99.90;;;;;;5054999;28;20044;-63
2023/06/02 03:30:57;;;;;;;19.92;3.78;;;10.90;99.90;;;;;;5068825;28;20521;-63
2023/06/02 03:33:23;;;;;;;12.00;2.88;;;10.90;99.90;;;;;;5065693;28;20039;-61
2023/06/02 03:35:49;;;;;;;20.38;3.22;;;10.90;99.90;;;;;;5081269;28;20060;-61
2023/06/02 03:38:15;;;;;;;15.10;3.88;;;10.90;99.90;;;;;;5068608;28;20076;-61
2023/06/02 03:40:41;;;;;;;19.00;3.83;;;10.90;99.90;;;;;;5038001;28;20036;-62
2023/06/02 03:43:06;;;;;;;14.68;3.38;;;10.90;99.90;;;;;;5054170;28;20043;-63
2023/06/02 03:45:32;;;;;;;16.20;3.20;;;10.90;99.90;;;;;;5064875;28;20071;-60
2023/06/02 03:48:00;;;;;;;23.45;4.22;;;11.00;99.90;;;;;;5031214;28;20044;-61
2023/06/02 03:50:26;;;;;;;13.98;2.95;;;11.00;99.90;;;;;;5049816;28;20355;-61
2023/06/02 03:52:53;;;;;;;20.17;4.15;;;11.00;99.90;;;;;;5050703;28;20075;-61
2023/06/02 03:55:18;;;;;;;21.45;4.07;;;11.00;99.90;;;;;;5068813;28;20075;-61
2023/06/02 03:57:47;;;;;;;13.70;3.08;;;11.00;99.90;;;;;;5069251;28;20128;-61
2023/06/02 04:00:13;;;;;;;23.90;3.90;;;11.10;99.90;;;;;;5054731;28;20040;-63
2023/06/02 04:02:39;;;;;;;17.30;3.45;;;11.10;99.90;;;;;;5053348;28;20043;-62
2023/06/02 04:05:11;;;;;;;19.10;4.03;;;11.10;99.90;;;;;;5055041;28;20052;-63
2023/06/02 04:07:37;;;;;;;12.95;3.38;;;11.10;99.90;;;;;;5060385;28;20492;-61
2023/06/02 04:10:05;;;;;;;17.65;3.70;;;11.10;99.90;;;;;;5064017;28;20043;-62
2023/06/02 04:12:31;;;;;;;19.02;3.20;;;11.10;99.90;;;;;;5064164;28;20052;-61
2023/06/02 04:14:57;;;;;;;14.10;3.83;;;11.10;99.90;;;;;;5066072;28;20093;-63
2023/06/02 04:17:23;;;;;;;23.63;3.97;;;11.10;99.90;;;;;;5062957;28;20094;-61
2023/06/02 04:19:48;;;;;;;17.80;3.10;;;11.20;99.90;;;;;;5065068;28;20660;-61
2023/06/02 04:22:14;;;;;;;13.02;3.42;;;11.20;99.90;;;;;;5047913;28;20056;-61
2023/06/02 04:24:41;;;;;;;14.43;3.47;;;11.20;99.90;;;;;;5057574;28;20044;-61
2023/06/02 04:27:07;;;;;;;19.13;3.30;;;11.20;99.90;;;;;;5070675;28;20043;-61
2023/06/02 04:29:33;;;;;;;14.45;3.03;;;11.20;99.90;;;;;;5052054;28;20055;-61
2023/06/02 04:32:01;;;;;;;16.60;4.10;;;11.20;99.90;;;;;;5070432;28;20083;-61
2023/06/02 04:34:26;;;;;;;14.43;3.40;;;11.20;99.90;;;;;;5070128;28;20054;-61
2023/06/02 04:36:52;;;;;;;19.25;3.70;;;11.30;99.90;;;;;;5093135;28;20028;-62
2023/06/02 04:39:19;;;;;;;15.05;3.50;;;11.30;99.90;;;;;;5072710;28;20040;-61
2023/06/02 04:41:46;;;;;;;16.60;3.33;;;11.30;99.90;;;;;;5064863;28;20033;-62
2023/06/02 04:44:11;;;;;;;17.38;4.47;;;11.30;99.90;;;;;;5065777;28;20036;-61
2023/06/02 04:46:37;;;;;;;16.15;3.28;;;11.30;99.90;;;;;;5056610;28;20052;-63
2023/06/02 04:49:08;;;;;;;20.23;3.67;;;11.30;99.90;;;;;;5074414;28;20067;-61
2023/06/02 04:51:35;;;;;;;18.55;3.30;;;11.30;99.90;;;;;;5062315;28;20044;-61
2023/06/02 04:54:01;;;;;;;18.25;4.25;;;11.40;99.90;;;;;;5070839;28;20415;-61
2023/06/02 04:56:27;;;;;;;23.80;3.95;;;11.40;99.90;;;;;;5069166;28;20079;-61
2023/06/02 04:58:53;;;;;;;16.33;4.00;;;11.40;99.90;;;;;;5069353;28;20048;-61
2023/06/02 05:01:19;;;;;;;15.30;3.35;;;11.40;99.90;;;;;;5067675;28;20460;-61
2023/06/02 05:03:47;;;;;;;10.77;2.95;;;11.50;99.90;;;;;;5043003;28;20643;-62
2023/06/02 05:06:13;;;;;;;17.83;3.15;;;11.50;99.90;;;;;;5070790;28;20067;-61
2023/06/02 05:08:39;;;;;;;22.65;3.88;;;11.50;99.90;;;;;;5068133;28;20486;-61
2023/06/02 05:11:05;;;;;;;12.73;3.92;;;11.60;99.90;;;;;;5069929;28;20542;-61
2023/06/02 05:13:31;;;;;;;20.90;3.92;;;11.60;99.90;;;;;;5034309;28;20126;-61
2023/06/02 05:15:57;;;;;;;17.42;3.45;;;11.60;99.90;;;;;;5072141;28;20118;-61
2023/06/02 05:18:23;;;;;;;15.10;3.55;;;11.70;99.90;;;;;;5091066;28;20495;-61
2023/06/02 05:20:51;;;;;;;18.15;4.03;;;11.70;99.90;;;;;;5072591;28;20035;-62
2023/06/02 05:23:17;;;;;;;16.65;4.43;;;11.70;99.90;;;;;;5049973;28;20510;-61
2023/06/02 05:25:49;;;;;;;17.17;4.28;;;11.80;99.90;;;;;;5071720;28;20039;-61
2023/06/02 05:28:15;;;;;;;20.90;3.42;;;11.80;99.90;;;;;;5053317;28;20388;-62
2023/06/02 05:30:43;;;;;;;10.18;3.22;;;11.90;99.90;;;;;;5056200;28;20077;-61
2023/06/02 05:33:09;;;;;;;20.70;4.65;;;11.90;99.90;;;;;;5049618;28;20028;-61
2023/06/02 05:35:35;;;;;;;20.95;4.47;;;11.90;99.90;;;;;;5066691;28;20058;-61
2023/06/02 05:38:04;;;;;;;22.52;4.53;;;11.90;99.90;;;;;;5066524;28;20036;-61
2023/06/02 05:40:30;;;;;;;18.20;4.65;;;12.00;99.90;;;;;;5054535;28;20302;-61
2023/06/02 05:42:56;;;;;;;18.00;4.15;;;11.90;99.90;;;;;;5064358;28;20036;-62
2023/06/02 05:45:21;;;;;;;21.17;4.30;;;12.00;99.90;;;;;;5089606;28;20079;-62
2023/06/02 05:47:48;;;;;;;18.23;3.67;;;12.00;99.90;;;;;;5048768;28;20506;-61
2023/06/02 05:50:14;;;;;;;21.88;4.00;;;12.00;99.90;;;;;;5051188;28;20044;-61
2023/06/02 05:52:40;;;;;;;24.50;4.28;;;12.00;99.90;;;;;;5065154;28;20047;-61
2023/06/02 05:55:06;;;;;;;24.33;4.95;;;12.00;99.90;;;;;;5052068;28;20059;-62
2023/06/02 05:57:32;;;;;;;26.23;4.60;;;12.00;99.90;;;;;;5089281;28;20503;-61
2023/06/02 05:59:58;;;;;;;21.48;4.60;;;12.00;99.90;;;;;;5070643;28;20039;-62
2023/06/02 06:02:23;;;;;;;21.95;4.72;;;12.10;99.90;;;;;;5065613;28;20130;-62
2023/06/02 06:04:49;;;;;;;17.15;3.85;;;12.10;99.90;;;;;;5062196;28;20474;-62
2023/06/02 06:07:15;;;;;;;27.80;5.65;;;12.20;99.90;;;;;;5046464;28;20040;-61
2023/06/02 06:09:41;;;;;;;22.52;4.65;;;12.20;99.90;;;;;;5062214;28;20063;-61
2023/06/02 06:12:07;;;;;;;22.60;4.93;;;12.20;99.90;;;;;;5048717;28;20033;-61
2023/06/02 06:14:33;;;;;;;29.05;6.63;;;12.20;99.90;;;;;;5065418;28;20040;-61
2023/06/02 06:16:58;;;;;;;24.45;4.88;;;12.30;99.90;;;;;;5058611;28;20539;-62
2023/06/02 06:19:24;;;;;;;24.48;5.25;;;12.40;99.90;;;;;;5059447;28;20062;-62
2023/06/02 06:21:50;;;;;;;21.05;4.85;;;12.40;99.90;;;;;;5063881;28;20052;-62
2023/06/02 06:24:16;;;;;;;27.45;5.10;;;12.40;99.90;;;;;;5070864;28;20083;-61
2023/06/02 06:26:41;;;;;;;17.58;4.30;;;12.50;99.90;;;;;;5064590;28;20101;-62
2023/06/02 06:29:07;;;;;;;16.30;4.28;;;12.50;99.90;;;;;;5082659;28;20544;-61
2023/06/02 06:31:33;;;;;;;31.17;6.30;;;12.60;99.90;;;;;;5065452;28;20044;-61
2023/06/02 06:33:59;;;;;;;21.48;5.05;;;12.60;99.90;;;;;;5063608;28;20036;-62
2023/06/02 06:36:25;;;;;;;24.05;5.70;;;12.70;99.90;;;;;;5043841;28;20106;-61
2023/06/02 06:38:51;;;;;;;25.55;5.50;;;12.80;99.90;;;;;;5078156;28;20052;-61
2023/06/02 06:41:18;;;;;;;32.00;6.50;;;12.80;99.90;;;;;;5047744;28;20052;-62
2023/06/02 06:43:43;;;;;;;22.73;4.80;;;12.90;99.90;;;;;;5045837;28;20578;-61
2023/06/02 06:46:09;;;;;;;25.13;4.55;;;12.90;99.90;;;;;;5060056;28;20080;-62
2023/06/02 06:48:35;;;;;;;18.52;4.90;;;12.90;99.90;;;;;;5063031;28;20043;-62
2023/06/02 06:51:01;;;;;;;24.98;4.57;;;13.00;99.90;;;;;;5065875;28;20473;-61
2023/06/02 06:53:27;;;;;;;19.55;5.15;;;13.00;99.90;;;;;;5066475;28;20048;-62
2023/06/02 06:55:54;;;;;;;20.90;5.45;;;13.10;99.90;;;;;;5062659;28;20098;-62
2023/06/02 06:58:20;;;;;;;17.73;4.78;;;13.20;99.90;;;;;;5048679;28;20402;-62
2023/06/02 07:00:45;;;;;;;24.80;4.78;;;13.20;99.90;;;;;;5062044;28;20036;-62
2023/06/02 07:03:11;;;;;;;27.17;5.03;;;13.20;99.90;;;;;;5060524;28;20040;-62
2023/06/02 07:05:37;;;;;;;28.50;5.50;;;13.20;99.90;;;;;;5030822;28;20240;-61
2023/06/02 07:08:03;;;;;;;22.67;5.13;;;13.30;99.90;;;;;;5064846;28;20101;-61
2023/06/02 07:10:31;;;;;;;24.48;5.47;;;13.30;99.90;;;;;;5064916;28;20295;-62
2023/06/02 07:12:57;;;;;;;22.75;4.75;;;13.30;99.90;;;;;;5048479;28;20490;-61
2023/06/02 07:15:22;;;;;;;19.65;4.78;;;13.40;99.90;;;;;;5044036;28;20044;-61
2023/06/02 07:29:02;;;;;;;23.67;5.03;;;13.80;99.90;;;;;;5082775;28;20069;-62
2023/06/02 07:31:31;;;;;;;18.27;4.32;;;13.80;99.90;;;;;;5047691;28;20119;-62
2023/06/02 07:33:57;;;;;;;20.38;4.78;;;13.90;99.90;;;;;;5048106;28;20510;-62
2023/06/02 07:36:23;;;;;;;27.58;4.82;;;14.00;99.90;;;;;;5047662;28;20040;-62
2023/06/02 07:38:50;;;;;;;24.15;5.20;;;14.10;99.90;;;;;;5060465;28;21510;-62
2023/06/02 07:41:17;;;;;;;24.20;5.80;;;14.20;99.90;;;;;;5063151;28;20063;-62
2023/06/02 07:43:43;;;;;;;20.08;4.07;;;14.20;99.90;;;;;;5041195;28;20044;-62
2023/06/02 07:46:09;;;;;;;19.02;4.45;;;14.20;99.90;;;;;;5060955;28;20048;-62
2023/06/02 07:48:35;;;;;;;20.40;4.00;;;14.30;99.90;;;;;;5031916;28;20139;-61
2023/06/02 07:51:02;;;;;;;25.60;5.55;;;14.20;99.90;;;;;;5057156;28;20127;-62
2023/06/02 07:53:28;;;;;;;21.88;5.28;;;14.30;99.90;;;;;;5063677;28;20070;-61
2023/06/02 07:55:53;;;;;;;21.77;5.22;;;14.20;99.90;;;;;;5050801;28;20024;-61
2023/06/02 07:58:19;;;;;;;17.73;4.20;;;14.30;99.90;;;;;;5060226;28;20043;-62
2023/06/02 08:00:45;;;;;;;24.20;5.20;;;14.50;99.90;;;;;;5061424;28;20112;-62
2023/06/02 08:03:10;;;;;;;21.70;4.10;;;14.60;99.90;;;;;;5049106;28;20388;-62
2023/06/02 08:05:37;;;;;;;15.50;3.70;;;14.80;99.90;;;;;;5030774;28;20272;-62
2023/06/02 08:08:02;;;;;;;20.50;5.03;;;14.90;99.90;;;;;;5061842;28;20135;-62
2023/06/02 08:10:28;;;;;;;15.88;4.07;;;14.90;99.90;;;;;;5048569;28;20468;-62
2023/06/02 08:12:54;;;;;;;22.55;5.20;;;15.00;99.90;;;;;;5062056;28;20567;-62
2023/06/02 08:15:20;;;;;;;25.15;5.85;;;15.00;99.90;;;;;;5068360;28;20079;-62
2023/06/02 08:17:45;;;;;;;20.08;5.40;;;15.10;99.90;;;;;;5065153;28;20050;-62
2023/06/02 08:20:11;;;;;;;21.50;4.88;;;15.30;99.90;;;;;;5068952;28;20040;-62
2023/06/02 08:22:37;;;;;;;18.05;3.90;;;15.50;99.90;;;;;;5053871;28;20125;-62
2023/06/02 08:25:03;;;;;;;14.80;3.53;;;15.70;99.90;;;;;;5075254;28;20039;-62
2023/06/02 08:27:29;;;;;;;14.43;4.07;;;15.90;99.90;;;;;;5046718;28;20081;-62
2023/06/02 08:29:58;;;;;;;17.33;3.28;;;16.00;99.90;;;;;;5059293;28;20261;-62
2023/06/02 08:32:24;;;;;;;17.08;4.03;;;16.20;99.90;;;;;;5030905;28;20093;-62
2023/06/02 08:34:50;;;;;;;16.02;3.60;;;16.40;99.90;;;;;;5063995;28;20086;-62
2023/06/02 08:37:21;;;;;;;16.23;3.58;;;16.60;99.90;;;;;;5058806;28;20044;-62
2023/06/02 08:39:48;;;;;;;17.08;3.47;;;16.80;99.90;;;;;;5057509;28;20042;-62
2023/06/02 08:42:15;;;;;;;18.40;4.13;;;16.90;99.90;;;;;;5065136;28;20032;-62
2023/06/02 08:44:43;;;;;;;18.38;4.28;;;17.00;99.90;;;;;;5060384;28;20418;-62
2023/06/02 08:47:13;;;;;;;15.48;3.15;;;17.20;99.90;;;;;;5056203;28;20494;-62
2023/06/02 08:49:41;;;;;;;16.70;4.25;;;17.30;99.90;;;;;;5047411;28;20044;-62
2023/06/02 08:52:14;;;;;;;18.35;4.22;;;17.40;99.90;;;;;;5066781;28;20556;-62
2023/06/02 08:54:41;;;;;;;12.13;3.53;;;17.50;99.90;;;;;;5048074;28;20256;-62
2023/06/02 08:57:07;;;;;;;14.55;2.80;;;17.50;99.90;;;;;;5061517;28;20028;-62
2023/06/02 08:59:33;;;;;;;13.80;2.97;;;17.50;99.90;;;;;;5060890;28;20086;-62
2023/06/02 09:02:00;;;;;;;12.73;3.20;;;17.60;99.90;;;;;;5060085;28;20040;-62
2023/06/02 09:04:27;;;;;;;20.35;3.67;;;17.70;99.90;;;;;;5063567;28;20563;-62
2023/06/02 09:07:11;;;;;;;11.57;3.08;;;17.80;99.90;;;;;;5059859;28;20048;-62
2023/06/02 09:09:46;;;;;;;12.40;2.90;;;17.90;99.90;;;;;;5068364;28;20101;-62
2023/06/02 09:12:12;;;;;;;14.23;3.97;;;17.90;99.90;;;;;;5069390;28;20076;-62
2023/06/02 09:14:39;;;;;;;11.63;3.10;;;17.90;99.90;;;;;;5050171;28;20036;-63
2023/06/02 09:17:25;;;;;;;10.52;2.63;;;17.90;99.90;;;;;;5039409;28;20029;-62
2023/06/02 09:20:08;;;;;;;11.73;2.60;;;18.10;99.90;;;;;;5065808;28;20045;-62
2023/06/02 09:22:33;;;;;;;13.52;3.20;;;18.30;99.90;;;;;;5064654;28;20044;-62
2023/06/02 09:24:59;;;;;;;13.05;2.85;;;18.40;99.90;;;;;;5065672;28;20044;-62
2023/06/02 09:27:26;;;;;;;6.90;2.45;;;18.40;99.90;;;;;;5062984;28;20412;-62
2023/06/02 09:30:03;;;;;;;13.23;2.90;;;18.50;99.90;;;;;;5051653;28;20040;-62
2023/06/02 09:32:29;;;;;;;11.45;2.20;;;18.70;99.90;;;;;;5048434;28;20036;-62
2023/06/02 09:34:55;;;;;;;10.60;2.00;;;18.70;99.90;;;;;;5034250;28;20524;-62
2023/06/02 09:37:22;;;;;;;9.98;2.03;;;18.70;99.90;;;;;;5088026;28;20068;-62
2023/06/02 09:39:57;;;;;;;7.03;2.00;;;18.70;99.90;;;;;;5060167;28;20048;-62
2023/06/02 09:42:24;;;;;;;9.63;2.38;;;18.80;99.30;;;;;;5068500;28;20032;-63
2023/06/02 09:45:09;;;;;;;8.98;2.10;;;18.80;99.30;;;;;;5065636;28;20036;-62
2023/06/02 09:47:44;;;;;;;6.00;1.50;;;18.90;99.10;;;;;;5058049;28;20036;-62
2023/06/02 09:50:33;;;;;;;8.38;1.85;;;19.00;98.70;;;;;;5066355;28;20543;-62
2023/06/02 09:53:06;;;;;;;8.38;1.80;;;18.90;97.90;;;;;;5050166;28;20181;-62
2023/06/02 09:55:35;;;;;;;13.52;2.30;;;18.90;97.90;;;;;;5066730;28;20051;-62
2023/06/02 09:58:02;;;;;;;4.55;1.60;;;18.90;98.60;;;;;;5065363;28;20109;-62
2023/06/02 10:00:27;;;;;;;6.30;1.52;;;19.10;98.10;;;;;;5066325;28;20488;-62
2023/06/02 10:02:53;;;;;;;8.27;2.03;;;19.20;97.60;;;;;;5043192;28;20051;-61
2023/06/02 10:05:22;;;;;;;8.43;1.70;;;19.40;97.40;;;;;;5060800;28;20051;-62
2023/06/02 10:08:28;;;;;;;7.88;1.90;;;19.30;96.70;;;;;;5050311;28;20652;-61
2023/06/02 10:11:02;;;;;;;7.53;1.80;;;19.30;96.90;;;;;;5020302;28;20170;-62
2023/06/02 10:13:46;;;;;;;6.13;1.83;;;19.40;96.40;;;;;;5044178;28;20040;-62
2023/06/02 10:16:39;;;;;;;6.07;1.85;;;19.50;95.30;;;;;;5048414;28;20550;-61
2023/06/02 10:19:14;;;;;;;6.82;1.77;;;19.60;95.20;;;;;;5055535;22;20063;-60
2023/06/02 10:21:58;;;;;;;5.20;1.80;;;19.60;95.20;;;;;;5006870;28;20045;-58
2023/06/02 10:24:37;;;;;;;;;;;19.50;94.30;;;;;;5005470;28;20037;-58
2023/06/02 10:27:08;;;;;;;5.88;1.35;;;19.50;94.60;;;;;;5023353;28;19932;-58
2023/06/02 10:29:35;;;;;;;6.75;1.80;;;19.60;95.40;;;;;;5009355;28;20064;-58
2023/06/02 10:32:27;;;;;;;5.90;1.48;;;19.60;94.50;;;;;;5021032;28;20492;-58
2023/06/02 10:34:54;;;;;;;6.60;1.63;;;19.70;94.30;;;;;;5009981;28;20423;-59
2023/06/02 10:37:22;;;;;;;7.10;2.38;;;19.70;93.80;;;;;;4990070;28;20289;-59
2023/06/02 10:39:53;;;;;;;6.32;1.30;;;19.90;95.00;;;;;;5005985;28;20033;-58
2023/06/02 10:42:25;;;;;;;4.15;1.55;;;20.10;94.50;;;;;;5022749;28;20099;-55
2023/06/02 10:44:54;;;;;;;5.72;1.98;;;20.20;94.10;;;;;;4981832;28;20484;-59
2023/06/02 10:47:20;;;;;;;4.25;1.40;;;20.10;93.30;;;;;;5021826;28;20049;-58
2023/06/02 10:49:56;;;;;;;6.70;1.60;;;20.00;93.10;;;;;;5000246;28;20041;-58
2023/06/02 10:52:22;;;;;;;4.90;1.33;;;20.10;92.70;;;;;;5014657;28;20143;-58
2023/06/02 10:55:06;;;;;;;7.55;1.60;;;20.30;92.60;;;;;;5012511;28;20076;-58
2023/06/02 10:57:52;;;;;;;5.95;1.50;;;20.20;91.70;;;;;;5024796;28;20582;-58
2023/06/02 11:00:32;;;;;;;7.30;1.50;;;20.30;91.10;;;;;;5008364;28;20041;-58
2023/06/02 11:02:58;;;;;;;3.05;1.05;;;20.30;90.90;;;;;;5027343;28;20044;-59
2023/06/02 11:05:25;;;;;;;2.70;1.48;;;20.40;90.80;;;;;;5041385;28;20041;-59
2023/06/02 11:08:18;;;;;;;3.03;1.20;;;20.40;90.00;;;;;;5022111;28;20446;-58
2023/06/02 11:10:44;;;;;;;4.53;1.33;;;20.20;88.70;;;;;;5023057;28;20040;-60
2023/06/02 11:13:12;;;;;;;3.35;1.40;;;20.30;90.50;;;;;;4992471;28;20120;-60
2023/06/02 11:15:44;;;;;;;4.53;1.35;;;20.50;91.20;;;;;;5023938;28;20036;-60
2023/06/02 11:18:26;;;;;;;5.13;1.42;;;20.60;90.00;;;;;;4999436;28;20128;-57
2023/06/02 11:21:03;;;;;;;3.78;1.00;;;20.70;88.10;;;;;;5023284;28;20049;-60
2023/06/02 11:23:29;;;;;;;3.10;1.10;;;20.70;85.80;;;;;;5026296;28;20037;-60
2023/06/02 11:26:01;;;;;;;5.43;1.40;;;20.40;84.90;;;;;;5023371;28;20140;-60
2023/06/02 11:28:28;;;;;;;4.05;1.00;;;20.40;87.80;;;;;;5044182;28;20041;-57
2023/06/02 11:31:14;;;;;;;4.30;1.55;;;20.60;87.00;;;;;;5010171;28;20056;-58
2023/06/02 11:33:42;;;;;;;4.30;1.40;;;20.80;84.60;;;;;;5013117;28;20045;-58
2023/06/02 11:36:13;;;;;;;4.55;1.20;;;20.90;83.90;;;;;;5022859;28;20038;-58
2023/06/02 11:38:40;;;;;;;4.68;1.17;;;21.00;83.70;;;;;;5027085;28;20049;-58
2023/06/02 11:41:13;;;;;;;5.22;1.08;;;21.00;83.20;;;;;;5028043;28;20116;-60
2023/06/02 11:43:43;;;;;;;5.25;1.58;;;21.10;82.50;;;;;;5024601;28;20025;-60
2023/06/02 11:46:12;;;;;;;2.92;1.20;;;21.00;82.60;;;;;;5023854;28;20134;-58
2023/06/02 11:48:40;;;;;;;5.10;1.67;;;21.20;81.60;;;;;;5024595;28;20056;-58
2023/06/02 11:51:06;;;;;;;6.03;1.50;;;21.30;84.90;;;;;;5022042;28;20052;-58
2023/06/02 11:53:33;;;;;;;5.72;1.67;;;21.20;84.30;;;;;;5042554;28;20049;-60
2023/06/02 11:56:00;;;;;;;6.95;1.90;;;21.10;87.30;;;;;;5023050;28;20094;-60
2023/06/02 11:58:27;;;;;;;5.18;1.65;;;21.30;90.00;;;;;;5023717;28;20090;-58
2023/06/02 12:01:08;;;;;;;5.28;1.60;;;21.50;88.90;;;;;;5043106;28;20040;-58
2023/06/02 12:03:34;;;;;;;4.22;1.60;;;21.60;87.30;;;;;;5027965;28;20064;-57
2023/06/02 12:06:13;;;;;;;8.15;2.00;;;21.30;88.10;;;;;;5022923;28;20033;-59
2023/06/02 12:12:20;;;;;;;4.82;1.80;;;21.40;88.70;;;;;;5040632;28;20478;-57
2023/06/02 12:14:46;;;;;;;4.20;1.50;;;21.50;88.90;;;;;;4995751;28;20048;-58
2023/06/02 12:17:15;;;;;;;4.65;1.48;;;21.50;88.50;;;;;;4985782;28;20321;-59
2023/06/02 12:19:41;;;;;;;5.07;2.10;;;21.50;89.40;;;;;;5009083;28;20403;-60
2023/06/02 12:22:10;;;;;;;5.95;1.85;;;21.80;90.30;;;;;;5011137;28;20029;-56
2023/06/02 12:24:39;;;;;;;5.53;2.03;;;21.80;91.40;;;;;;5007544;28;20045;-57
2023/06/02 12:27:07;;;;;;;5.55;1.85;;;21.90;91.60;;;;;;5043244;28;20442;-57
2023/06/02 12:29:33;;;;;;;8.60;2.40;;;21.80;92.20;;;;;;5023549;28;20056;-59
2023/06/02 12:32:06;;;;;;;6.55;2.17;;;21.60;92.00;;;;;;5010836;28;20040;-59
2023/06/02 12:38:13;;;;;;;6.53;2.25;;;21.50;93.10;;;;;;5039312;28;20036;-57
2023/06/02 12:40:40;;;;;;;8.55;2.28;;;21.30;93.40;;;;;;5009792;28;20049;-57
2023/06/02 12:43:06;;;;;;;7.00;2.70;;;21.30;93.20;;;;;;5024848;28;20058;-60
2023/06/02 12:45:32;;;;;;;8.55;2.35;;;21.20;93.50;;;;;;5029110;28;20487;-59
2023/06/02 12:47:59;;;;;;;6.53;2.40;;;21.30;93.60;;;;;;5038879;28;20143;-59
2023/06/02 12:50:25;;;;;;;9.80;2.65;;;21.40;93.50;;;;;;5050932;28;20072;-59
2023/06/02 12:52:52;;;;;;;8.43;2.42;;;21.30;93.40;;;;;;5016338;28;20072;-60
2023/06/02 12:55:18;;;;;;;7.75;2.30;;;21.40;93.90;;;;;;5042265;28;20487;-57
2023/06/02 12:57:48;;;;;;;9.75;2.35;;;21.60;94.20;;;;;;5044234;28;20622;-59
2023/06/02 13:00:14;;;;;;;4.72;2.05;;;21.60;93.70;;;;;;5012133;28;20059;-59
2023/06/02 13:02:41;;;;;;;9.43;2.50;;;21.80;93.90;;;;;;5026803;28;20037;-59
2023/06/02 13:05:09;;;;;;;6.97;2.15;;;21.80;93.20;;;;;;5043371;28;20279;-59
2023/06/02 13:07:38;;;;;;;7.88;2.10;;;21.80;92.50;;;;;;5026149;28;20048;-58
2023/06/02 13:10:10;;;;;;;6.00;2.30;;;21.80;93.40;;;;;;5031494;28;20110;-58
2023/06/02 13:12:36;;;;;;;8.20;2.13;;;21.70;92.90;;;;;;5044651;28;21752;-60